createdAt,value
2022-12-31T00:00:14.641Z,99578.44
2022-12-31T00:02:41.460Z,99564.09
2022-12-31T00:05:08.913Z,99561.66
2022-12-31T00:10:02.694Z,99562.38
2022-12-31T00:12:29.421Z,99571.91
2022-12-31T00:14:56.119Z,99564.34
2022-12-31T00:17:22.815Z,99559.97
2022-12-31T00:19:49.560Z,99558.34
2022-12-31T00:22:16.299Z,99555.94
2022-12-31T00:24:42.903Z,99545.16
2022-12-31T00:27:09.456Z,99549.56
2022-12-31T00:29:36.118Z,99551.88
2022-12-31T00:32:02.792Z,99553.06
2022-12-31T00:34:29.565Z,99550.28
2022-12-31T00:36:56.300Z,99543.09
2022-12-31T00:39:22.955Z,99541.50
2022-12-31T00:42:03.559Z,99542.28
2022-12-31T00:44:30.303Z,99544.72
2022-12-31T00:46:57.048Z,99537.91
2022-12-31T00:49:23.831Z,99541.13
2022-12-31T00:51:50.703Z,99535.13
2022-12-31T00:54:17.540Z,99539.06
2022-12-31T00:56:44.732Z,99544.63
2022-12-31T00:59:11.285Z,99547.31
2022-12-31T01:01:40.163Z,99546.16
2022-12-31T01:04:13.623Z,99549.38
2022-12-31T01:06:42.436Z,99551.00
2022-12-31T01:09:10.592Z,99547.78
2022-12-31T01:11:37.673Z,99542.22
2022-12-31T01:14:08.044Z,99536.53
2022-12-31T01:16:43.264Z,99521.41
2022-12-31T01:19:18.524Z,99532.50
2022-12-31T01:21:47.124Z,99525.31
2022-12-31T01:24:14.369Z,99531.88
2022-12-31T01:26:41.587Z,99537.69
2022-12-31T01:29:09.651Z,99542.91
2022-12-31T01:31:37.356Z,99538.97
2022-12-31T01:34:04.686Z,99546.03
2022-12-31T01:36:33.553Z,99544.53
2022-12-31T01:39:01.940Z,99536.88
2022-12-31T01:41:34.792Z,99529.25
2022-12-31T01:44:22.836Z,99542.44
2022-12-31T01:47:03.111Z,99556.34
2022-12-31T01:49:39.816Z,99557.97
2022-12-31T01:52:13.291Z,99558.53
2022-12-31T01:54:52.264Z,99551.97
2022-12-31T01:57:19.729Z,99559.84
2022-12-31T01:59:47.595Z,99560.38
2022-12-31T02:02:16.090Z,99574.69
2022-12-31T02:04:43.024Z,99573.06
2022-12-31T02:07:11.322Z,99567.50
2022-12-31T02:09:40.546Z,99582.50
2022-12-31T02:12:09.466Z,99588.88
2022-12-31T02:14:46.565Z,99587.25
2022-12-31T02:17:24.906Z,99589.59
2022-12-31T02:20:24.795Z,99600.72
2022-12-31T02:23:44.165Z,99586.53
2022-12-31T02:26:41.513Z,99596.84
2022-12-31T02:29:36.192Z,99588.16
2022-12-31T02:32:32.593Z,99602.31
2022-12-31T02:35:23.382Z,99610.41
2022-12-31T02:43:17.064Z,99634.22
2022-12-31T02:45:50.324Z,99628.28
2022-12-31T02:48:35.544Z,99633.41
2022-12-31T02:51:04.766Z,99627.84
2022-12-31T02:53:46.031Z,99626.91
2022-12-31T02:56:38.135Z,99629.25
2022-12-31T02:59:31.579Z,99624.50
2022-12-31T03:02:15.856Z,99630.91
2022-12-31T03:04:48.675Z,99631.06
2022-12-31T03:07:20.792Z,99627.38
2022-12-31T03:09:47.491Z,99642.28
2022-12-31T03:12:34.028Z,99634.41
2022-12-31T03:15:01.078Z,99634.13
2022-12-31T03:17:27.693Z,99640.66
2022-12-31T03:20:12.755Z,99632.22
2022-12-31T03:22:42.638Z,99624.59
2022-12-31T03:25:27.697Z,99622.88
2022-12-31T03:27:56.030Z,99624.78
2022-12-31T03:30:23.485Z,99622.72
2022-12-31T03:32:51.408Z,99612.38
2022-12-31T03:35:20.723Z,99619.00
2022-12-31T03:37:48.554Z,99630.53
2022-12-31T03:40:16.332Z,99626.81
2022-12-31T03:42:42.975Z,99615.06
2022-12-31T03:45:10.832Z,99640.41
2022-12-31T03:47:37.637Z,99636.47
2022-12-31T03:50:06.088Z,99640.41
2022-12-31T03:52:32.769Z,99646.47
2022-12-31T03:54:59.416Z,99635.00
2022-12-31T03:57:26.127Z,99647.38
2022-12-31T03:59:52.867Z,99641.81
2022-12-31T04:02:23.268Z,99645.22
2022-12-31T04:04:54.776Z,99629.06
2022-12-31T04:07:21.475Z,99637.34
2022-12-31T04:09:48.286Z,99638.13
2022-12-31T04:12:15.223Z,99641.63
2022-12-31T04:14:42.011Z,99649.72
2022-12-31T04:17:08.973Z,99656.44
2022-12-31T04:19:35.610Z,99656.44
2022-12-31T04:22:02.271Z,99652.50
2022-12-31T04:24:29.256Z,99661.56
2022-12-31T04:26:55.928Z,99661.56
2022-12-31T04:29:22.841Z,99667.84
2022-12-31T04:31:49.770Z,99663.00
2022-12-31T04:34:16.947Z,99654.22
2022-12-31T04:36:43.630Z,99662.56
2022-12-31T04:39:10.302Z,99664.59
2022-12-31T04:41:36.995Z,99663.81
2022-12-31T04:44:03.861Z,99667.75
2022-12-31T04:46:32.825Z,99677.34
2022-12-31T04:49:00.421Z,99686.50
2022-12-31T04:51:28.625Z,99676.53
2022-12-31T04:53:55.455Z,99679.69
2022-12-31T04:56:22.804Z,99682.81
2022-12-31T04:58:50.143Z,99689.91
2022-12-31T05:01:17.236Z,99690.81
2022-12-31T05:03:45.204Z,99680.03
2022-12-31T05:06:16.988Z,99685.69
2022-12-31T05:08:44.298Z,99681.38
2022-12-31T05:11:11.514Z,99679.09
2022-12-31T05:13:38.657Z,99690.09
2022-12-31T05:16:05.983Z,99680.75
2022-12-31T05:18:33.227Z,99676.72
2022-12-31T05:21:00.616Z,99688.13
2022-12-31T05:23:27.999Z,99687.06
2022-12-31T05:25:54.694Z,99685.25
2022-12-31T05:28:21.801Z,99688.75
2022-12-31T05:30:50.207Z,99693.16
2022-12-31T05:33:18.095Z,99688.31
2022-12-31T05:35:45.330Z,99695.13
2022-12-31T05:38:12.559Z,99710.91
2022-12-31T05:40:39.385Z,99726.44
2022-12-31T05:43:06.522Z,99723.50
2022-12-31T05:45:33.181Z,99712.38
2022-12-31T05:47:59.938Z,99711.44
2022-12-31T05:50:26.599Z,99720.22
2022-12-31T05:52:56.525Z,99736.94
2022-12-31T05:55:23.766Z,99734.16
2022-12-31T05:57:50.423Z,99740.88
2022-12-31T06:00:17.590Z,99746.47
2022-12-31T06:02:45.342Z,99750.38
2022-12-31T06:05:12.320Z,99746.47
2022-12-31T06:07:39.137Z,99736.94
2022-12-31T06:10:06.546Z,99753.63
2022-12-31T06:12:33.257Z,99752.03
2022-12-31T06:15:00.250Z,99767.19
2022-12-31T06:17:27.021Z,99765.94
2022-12-31T06:19:53.686Z,99776.69
2022-12-31T06:22:20.279Z,99770.16
2022-12-31T06:24:46.954Z,99778.44
2022-12-31T06:27:13.913Z,99771.81
2022-12-31T06:29:40.653Z,99781.44
2022-12-31T06:32:07.463Z,99775.69
2022-12-31T06:34:34.127Z,99771.22
2022-12-31T06:37:00.899Z,99779.47
2022-12-31T06:39:27.909Z,99778.66
2022-12-31T06:41:54.896Z,99774.28
2022-12-31T06:44:22.734Z,99771.81
2022-12-31T06:46:50.647Z,99782.72
2022-12-31T06:49:17.571Z,99770.94
2022-12-31T06:51:46.181Z,99773.81
2022-12-31T06:54:13.773Z,99776.59
2022-12-31T06:56:41.074Z,99783.06
2022-12-31T06:59:25.120Z,99773.56
2022-12-31T07:02:30.934Z,99778.22
2022-12-31T07:05:06.578Z,99756.31
2022-12-31T07:07:45.200Z,99769.53
2022-12-31T07:10:12.002Z,99770.31
2022-12-31T07:12:57.168Z,99776.13
2022-12-31T07:15:37.239Z,99766.75
2022-12-31T07:18:20.300Z,99771.13
2022-12-31T07:20:47.249Z,99774.97
2022-12-31T07:23:14.260Z,99775.88
2022-12-31T07:25:51.222Z,99778.91
2022-12-31T07:28:40.592Z,99783.66
2022-12-31T07:31:36.565Z,99785.50
2022-12-31T07:34:37.411Z,99800.63
2022-12-31T07:37:15.245Z,99813.94
2022-12-31T07:39:54.278Z,99808.69
2022-12-31T07:42:37.220Z,99802.09
2022-12-31T07:45:31.668Z,99793.53
2022-12-31T07:48:02.495Z,99804.44
2022-12-31T07:50:30.221Z,99806.53
2022-12-31T07:52:57.212Z,99798.47
2022-12-31T07:55:23.934Z,99813.53
2022-12-31T07:58:25.700Z,99825.47
2022-12-31T08:00:55.450Z,99809.06
2022-12-31T08:03:33.975Z,99814.81
2022-12-31T08:06:12.636Z,99818.03
2022-12-31T08:08:39.218Z,99810.34
2022-12-31T08:11:37.968Z,99823.28
2022-12-31T08:14:10.158Z,99827.88
2022-12-31T08:16:37.418Z,99826.47
2022-12-31T08:19:04.861Z,99826.19
2022-12-31T08:21:48.405Z,99833.09
2022-12-31T08:24:17.516Z,99833.63
2022-12-31T08:27:19.618Z,99845.59
2022-12-31T08:30:01.459Z,99859.34
2022-12-31T08:32:55.305Z,99847.81
2022-12-31T08:35:46.547Z,99859.88
2022-12-31T08:38:21.775Z,99871.47
2022-12-31T08:41:25.984Z,99861.22
2022-12-31T08:44:48.362Z,99862.75
2022-12-31T08:47:24.197Z,99863.06
2022-12-31T08:49:53.325Z,99856.75
2022-12-31T08:52:25.165Z,99872.38
2022-12-31T08:54:53.171Z,99866.47
2022-12-31T08:57:30.636Z,99880.84
2022-12-31T09:00:09.948Z,99877.63
2022-12-31T09:02:43.214Z,99888.03
2022-12-31T09:05:24.844Z,99877.78
2022-12-31T09:08:12.739Z,99887.47
2022-12-31T09:10:45.059Z,99900.97
2022-12-31T09:13:14.580Z,99915.38
2022-12-31T09:15:48.703Z,99917.88
2022-12-31T09:18:15.607Z,99916.28
2022-12-31T09:20:44.252Z,99919.59
2022-12-31T09:23:12.956Z,99932.28
2022-12-31T09:25:51.847Z,99928.41
2022-12-31T09:28:28.477Z,99923.63
2022-12-31T09:31:06.134Z,99946.41
2022-12-31T09:33:56.200Z,99938.84
2022-12-31T09:36:32.162Z,99946.09
2022-12-31T09:39:16.854Z,99956.53
2022-12-31T09:42:01.444Z,99959.00
2022-12-31T09:44:43.166Z,99955.09
2022-12-31T09:47:40.516Z,99957.16
2022-12-31T09:50:40.976Z,99967.88
2022-12-31T09:53:28.965Z,99970.41
2022-12-31T09:56:10.929Z,99973.19
2022-12-31T09:58:49.958Z,99967.59
2022-12-31T10:01:45.449Z,99980.47
2022-12-31T10:04:40.465Z,99984.97
2022-12-31T10:07:32.460Z,99975.34
2022-12-31T10:10:29.644Z,99956.63
2022-12-31T10:13:06.809Z,99971.00
2022-12-31T10:16:10.483Z,99969.56
2022-12-31T10:18:46.116Z,99976.31
2022-12-31T10:21:34.038Z,99968.38
2022-12-31T10:24:48.772Z,99965.16
2022-12-31T10:27:22.519Z,99973.22
2022-12-31T10:30:02.269Z,99965.31
2022-12-31T10:32:55.248Z,99958.63
2022-12-31T10:35:50.674Z,99967.09
2022-12-31T10:38:32.098Z,99963.06
2022-12-31T10:41:35.655Z,99956.66
2022-12-31T10:44:50.245Z,99961.94
2022-12-31T10:47:28.910Z,99958.53
2022-12-31T10:50:33.193Z,99966.63
2022-12-31T10:53:18.234Z,99963.31
2022-12-31T10:56:03.025Z,99952.16
2022-12-31T10:58:44.663Z,99950.25
2022-12-31T11:04:27.457Z,99954.38
2022-12-31T11:07:09.351Z,99958.03
2022-12-31T11:10:00.754Z,99962.88
2022-12-31T11:12:46.125Z,99951.72
2022-12-31T11:24:37.967Z,99967.44
2022-12-31T11:27:21.090Z,99979.81
2022-12-31T11:30:25.284Z,99990.69
2022-12-31T11:33:05.503Z,99972.72
2022-12-31T11:35:55.477Z,99980.38
2022-12-31T11:38:22.112Z,99974.53
2022-12-31T11:41:07.832Z,99975.13
2022-12-31T11:43:55.734Z,99994.50
2022-12-31T11:46:50.889Z,99983.75
2022-12-31T11:50:02.115Z,99985.09
2022-12-31T11:52:52.088Z,99988.41
2022-12-31T11:55:32.947Z,99987.47
2022-12-31T11:58:08.273Z,99998.97
2022-12-31T12:00:35.200Z,99998.72
2022-12-31T12:03:04.807Z,100006.63
2022-12-31T12:05:33.491Z,100006.72
2022-12-31T12:08:01.010Z,99994.38
2022-12-31T12:10:35.555Z,100006.38
2022-12-31T12:13:19.676Z,99996.28
2022-12-31T12:15:52.566Z,99997.91
2022-12-31T12:18:25.462Z,99987.97
2022-12-31T12:20:52.920Z,99992.31
2022-12-31T12:23:26.375Z,100001.13
2022-12-31T12:25:53.404Z,100007.16
2022-12-31T12:28:22.075Z,100011.66
2022-12-31T12:31:03.472Z,100021.13
2022-12-31T12:33:41.711Z,100038.78
2022-12-31T12:36:13.821Z,100053.94
2022-12-31T12:38:41.133Z,100035.56
2022-12-31T12:41:19.070Z,100043.47
2022-12-31T12:43:45.817Z,100025.97
2022-12-31T12:46:30.728Z,100022.00
2022-12-31T12:48:58.792Z,100018.06
2022-12-31T12:51:31.426Z,100005.25
2022-12-31T12:54:31.843Z,100029.97
2022-12-31T12:57:15.246Z,100031.66
2022-12-31T12:59:53.755Z,100043.00
2022-12-31T13:02:41.366Z,100042.81
2022-12-31T13:05:11.069Z,100044.88
2022-12-31T13:07:46.589Z,100031.72
2022-12-31T13:10:25.441Z,100031.81
2022-12-31T13:16:08.087Z,100026.56
2022-12-31T13:19:19.694Z,100016.72
2022-12-31T13:22:25.094Z,100022.31
2022-12-31T13:24:59.325Z,100021.41
2022-12-31T13:27:35.585Z,100028.06
2022-12-31T13:30:13.041Z,100013.91
2022-12-31T13:32:52.754Z,100027.16
2022-12-31T13:35:22.460Z,100013.50
2022-12-31T13:37:51.446Z,100010.38
2022-12-31T13:40:27.537Z,100005.53
2022-12-31T13:43:26.232Z,99995.91
2022-12-31T13:46:03.224Z,99999.94
2022-12-31T13:48:40.837Z,99997.56
2022-12-31T13:54:49.541Z,99972.88
2022-12-31T13:57:29.130Z,99978.00
2022-12-31T14:00:01.764Z,99980.13
2022-12-31T14:02:44.608Z,99970.50
2022-12-31T14:05:11.295Z,99979.72
2022-12-31T14:07:51.583Z,99982.50
2022-12-31T14:10:25.433Z,99973.31
2022-12-31T14:13:34.808Z,99976.53
2022-12-31T14:31:22.066Z,99975.72
2022-12-31T14:34:00.669Z,99969.03
2022-12-31T14:36:27.596Z,99969.78
2022-12-31T14:39:21.983Z,99973.31
2022-12-31T14:41:58.063Z,99969.78
2022-12-31T14:44:37.961Z,99971.31
2022-12-31T14:47:07.575Z,99978.09
2022-12-31T14:49:55.572Z,99988.91
2022-12-31T14:52:23.915Z,99980.94
2022-12-31T14:55:09.136Z,99990.59
2022-12-31T14:58:26.039Z,99989.78
2022-12-31T15:00:35.344Z,99983.75
2022-12-31T15:03:16.307Z,99986.53
2022-12-31T15:06:00.126Z,99989.78
2022-12-31T15:08:39.935Z,99991.75
2022-12-31T15:11:15.623Z,99990.09
2022-12-31T15:14:02.378Z,99982.84
2022-12-31T15:17:06.267Z,99977.00
2022-12-31T15:19:38.657Z,99984.19
2022-12-31T15:22:56.332Z,99981.75
2022-12-31T15:25:41.185Z,99977.34
2022-12-31T15:28:29.789Z,99982.63
2022-12-31T15:31:03.160Z,99988.16
2022-12-31T15:33:34.725Z,99981.03
2022-12-31T15:36:18.096Z,99975.78
2022-12-31T15:38:49.683Z,99973.91
2022-12-31T15:41:19.280Z,99970.31
2022-12-31T15:44:12.341Z,99978.75
2022-12-31T15:46:42.641Z,99975.97
2022-12-31T15:49:18.337Z,99981.09
2022-12-31T15:51:51.409Z,99984.28
2022-12-31T15:54:39.717Z,99988.75
2022-12-31T15:57:12.584Z,99978.03
2022-12-31T15:59:40.800Z,99980.88
2022-12-31T16:02:25.859Z,99986.03
2022-12-31T16:04:55.017Z,99977.84
2022-12-31T16:07:23.904Z,99990.69
2022-12-31T16:09:55.111Z,99988.31
2022-12-31T16:12:33.130Z,99986.69
2022-12-31T16:15:01.741Z,99992.28
2022-12-31T16:17:31.146Z,99989.13
2022-12-31T16:19:59.457Z,99993.03
2022-12-31T16:22:37.077Z,100008.91
2022-12-31T16:25:30.256Z,100003.75
2022-12-31T16:27:53.998Z,99996.09
2022-12-31T16:30:31.365Z,99991.41
2022-12-31T16:33:01.878Z,99983.81
2022-12-31T16:35:33.565Z,99980.94
2022-12-31T16:38:17.883Z,99983.44
2022-12-31T16:41:20.893Z,99994.53
2022-12-31T16:43:49.453Z,99989.78
2022-12-31T16:46:27.018Z,99987.44
2022-12-31T16:49:06.462Z,99992.28
2022-12-31T16:51:36.086Z,99983.44
2022-12-31T16:54:03.531Z,99989.03
2022-12-31T16:56:34.451Z,99993.09
2022-12-31T16:59:30.425Z,99979.03
2022-12-31T17:02:02.512Z,99969.03
2022-12-31T17:04:29.380Z,99974.63
2022-12-31T17:07:36.443Z,99977.84
2022-12-31T17:10:15.986Z,99979.50
2022-12-31T17:13:25.392Z,99965.94
2022-12-31T17:15:42.623Z,99962.84
2022-12-31T17:18:17.982Z,99966.03
2022-12-31T17:20:45.057Z,99966.84
2022-12-31T17:23:25.373Z,99960.50
2022-12-31T17:25:59.084Z,99965.34
2022-12-31T17:28:27.740Z,99976.53
2022-12-31T17:31:00.786Z,99987.72
2022-12-31T17:33:29.832Z,99981.41
2022-12-31T17:36:14.831Z,99970.25
2022-12-31T17:38:42.049Z,99981.88
2022-12-31T17:41:27.711Z,99979.03
2022-12-31T17:43:55.732Z,99982.69
2022-12-31T17:46:24.019Z,99985.13
2022-12-31T17:48:57.157Z,99980.63
2022-12-31T17:51:24.606Z,99972.63
2022-12-31T17:53:51.668Z,99968.69
2022-12-31T17:56:19.734Z,99971.13
2022-12-31T17:58:51.064Z,99969.06
2022-12-31T18:01:20.734Z,99960.75
2022-12-31T18:03:48.486Z,99965.47
2022-12-31T18:06:17.085Z,99962.75
2022-12-31T18:08:44.143Z,99953.91
2022-12-31T18:11:31.360Z,99959.06
2022-12-31T18:13:58.064Z,99962.66
2022-12-31T18:16:24.856Z,99960.31
2022-12-31T18:18:51.626Z,99962.34
2022-12-31T18:21:25.841Z,99963.84
2022-12-31T18:26:22.176Z,99954.28
2022-12-31T18:28:49.798Z,99955.91
2022-12-31T18:31:24.945Z,99953.47
2022-12-31T18:33:53.861Z,99952.66
2022-12-31T18:36:21.639Z,99946.31
2022-12-31T18:38:48.986Z,99955.91
2022-12-31T18:41:27.016Z,99962.25
2022-12-31T18:43:54.440Z,99955.03
2022-12-31T18:46:24.993Z,99964.22
2022-12-31T18:48:51.771Z,99970.22
2022-12-31T18:51:23.966Z,99961.84
2022-12-31T18:53:53.324Z,99967.03
2022-12-31T18:56:21.501Z,99971.81
2022-12-31T18:58:48.564Z,99968.94
2022-12-31T19:01:30.897Z,99978.88
2022-12-31T19:04:00.300Z,99962.97
2022-12-31T19:06:27.935Z,99982.19
2022-12-31T19:08:54.792Z,99988.16
2022-12-31T19:11:22.675Z,99992.59
2022-12-31T19:13:49.745Z,99999.03
2022-12-31T19:16:17.940Z,100009.78
2022-12-31T19:18:44.959Z,100019.03
2022-12-31T19:21:19.275Z,100009.47
2022-12-31T19:23:46.913Z,100008.31
2022-12-31T19:26:18.340Z,100014.66
2022-12-31T19:28:46.629Z,100015.50
2022-12-31T19:31:14.046Z,100020.31
2022-12-31T19:33:41.171Z,100019.94
2022-12-31T19:36:15.258Z,100025.53
2022-12-31T19:38:42.308Z,100033.59
2022-12-31T19:41:18.768Z,100028.75
2022-12-31T19:43:46.941Z,100025.53
2022-12-31T19:46:18.228Z,100032.28
2022-12-31T19:48:45.858Z,100037.94
2022-12-31T19:51:16.685Z,100039.66
2022-12-31T19:53:52.323Z,100039.94
2022-12-31T19:56:20.415Z,100040.81
2022-12-31T19:58:47.460Z,100044.34
2022-12-31T20:01:22.819Z,100036.41
2022-12-31T20:03:50.247Z,100039.13
2022-12-31T20:06:18.667Z,100045.59
2022-12-31T20:08:46.593Z,100040.81
2022-12-31T20:11:21.548Z,100043.22
2022-12-31T20:13:49.920Z,100042.72
2022-12-31T20:16:19.074Z,100045.53
2022-12-31T20:18:46.562Z,100054.38
2022-12-31T20:21:17.854Z,100061.50
2022-12-31T20:23:45.406Z,100051.59
2022-12-31T20:26:12.558Z,100049.97
2022-12-31T20:28:39.287Z,100051.94
2022-12-31T20:31:25.365Z,100061.50
2022-12-31T20:33:54.156Z,100063.50
2022-12-31T20:36:21.262Z,100068.28
2022-12-31T20:38:48.533Z,100076.31
2022-12-31T20:41:20.781Z,100073.97
2022-12-31T20:43:48.464Z,100071.91
2022-12-31T20:46:21.245Z,100075.88
2022-12-31T20:48:49.518Z,100079.09
2022-12-31T20:51:17.832Z,100080.72
2022-12-31T20:53:56.180Z,100080.34
2022-12-31T20:56:24.133Z,100073.22
2022-12-31T20:58:50.888Z,100067.16
2022-12-31T21:01:18.404Z,100074.47
2022-12-31T21:04:04.907Z,100074.41
2022-12-31T21:06:33.777Z,100083.22
2022-12-31T21:09:01.912Z,100080.84
2022-12-31T21:11:47.660Z,100082.03
2022-12-31T21:14:14.517Z,100092.84
2022-12-31T21:16:41.216Z,100077.63
2022-12-31T21:19:08.195Z,100082.78
2022-12-31T21:21:35.090Z,100093.97
2022-12-31T21:24:02.434Z,100080.91
2022-12-31T21:26:48.099Z,100069.66
2022-12-31T21:29:14.966Z,100078.44
2022-12-31T21:31:41.583Z,100080.41
2022-12-31T21:34:09.920Z,100089.25
2022-12-31T21:36:36.658Z,100082.13
2022-12-31T21:39:03.808Z,100088.97
2022-12-31T21:41:49.249Z,100077.63
2022-12-31T21:44:15.854Z,100087.22
2022-12-31T21:47:00.858Z,100090.00
2022-12-31T21:49:29.135Z,100087.94
2022-12-31T21:52:14.397Z,100094.41
2022-12-31T21:54:59.507Z,100082.41
2022-12-31T21:57:26.249Z,100082.78
2022-12-31T22:00:40.515Z,100084.78
2022-12-31T22:03:17.426Z,100096.78
2022-12-31T22:05:49.711Z,100106.59
2022-12-31T22:08:16.779Z,100104.13
2022-12-31T22:10:51.946Z,100105.75
2022-12-31T22:13:19.486Z,100108.53
2022-12-31T22:15:47.822Z,100119.84
2022-12-31T22:18:16.361Z,100118.69
2022-12-31T22:20:43.372Z,100112.34
2022-12-31T22:23:10.335Z,100119.50
2022-12-31T22:25:39.137Z,100115.97
2022-12-31T22:30:54.375Z,100121.25
2022-12-31T22:33:21.235Z,100126.47
2022-12-31T22:36:05.575Z,100128.47
2022-12-31T22:38:33.249Z,100118.81
2022-12-31T22:41:07.036Z,100117.22
2022-12-31T22:43:35.765Z,100122.06
2022-12-31T22:46:09.845Z,100123.66
2022-12-31T22:48:37.599Z,100119.28
2022-12-31T22:51:04.617Z,100131.31
2022-12-31T22:53:31.493Z,100130.88
2022-12-31T22:55:58.373Z,100132.53
2022-12-31T22:58:25.834Z,100138.53
2022-12-31T23:00:53.491Z,100138.97
2022-12-31T23:03:20.299Z,100136.19
2022-12-31T23:05:51.901Z,100141.78
2022-12-31T23:08:23.424Z,100143.03
2022-12-31T23:11:11.592Z,100147.84
2022-12-31T23:13:59.814Z,100153.88
2022-12-31T23:16:47.551Z,100160.63
2022-12-31T23:19:34.272Z,100164.63
2022-12-31T23:22:19.966Z,100171.81
2022-12-31T23:24:46.781Z,100159.03
2022-12-31T23:27:13.627Z,100157.53
2022-12-31T23:29:46.785Z,100160.63
2022-12-31T23:32:18.142Z,100178.97
2022-12-31T23:34:46.659Z,100168.72
2022-12-31T23:37:14.606Z,100163.13
2022-12-31T23:39:42.028Z,100168.72
2022-12-31T23:42:09.037Z,100163.50
2022-12-31T23:44:35.656Z,100171.91
2022-12-31T23:47:02.360Z,100167.94
2022-12-31T23:49:29.219Z,100171.91
2022-12-31T23:51:55.885Z,100182.16
2022-12-31T23:54:22.550Z,100186.13
2022-12-31T23:56:49.220Z,100192.03
2022-12-31T23:59:16.207Z,100184.50
